createdAt,value
2019-05-13T00:02:30.546Z,80.73
2019-05-13T00:05:03.906Z,80.60
2019-05-13T00:07:36.830Z,80.39
2019-05-13T00:10:09.299Z,80.10
2019-05-13T00:12:41.492Z,79.90
2019-05-13T00:15:14.308Z,79.76
2019-05-13T00:17:45.814Z,80.06
2019-05-13T00:20:18.499Z,79.87
2019-05-13T00:22:50.540Z,79.97
2019-05-13T00:25:24.180Z,79.91
2019-05-13T00:27:56.457Z,80.20
2019-05-13T00:30:28.165Z,80.49
2019-05-13T00:33:00.057Z,80.04
2019-05-13T00:35:33.942Z,79.84
2019-05-13T00:38:05.445Z,79.90
2019-05-13T00:40:37.245Z,79.67
2019-05-13T00:43:09.026Z,80.25
2019-05-13T00:45:41.071Z,80.21
2019-05-13T00:48:14.292Z,80.25
2019-05-13T00:50:46.124Z,79.79
2019-05-13T00:53:17.900Z,79.48
2019-05-13T00:55:49.840Z,79.51
2019-05-13T00:58:23.979Z,79.20
2019-05-13T01:00:55.714Z,79.23
2019-05-13T01:03:28.411Z,79.20
2019-05-13T01:06:00.419Z,79.34
2019-05-13T01:08:33.813Z,79.42
2019-05-13T01:11:05.607Z,79.47
2019-05-13T01:13:37.270Z,79.72
2019-05-13T01:16:08.982Z,79.82
2019-05-13T01:18:43.201Z,79.78
2019-05-13T01:21:14.891Z,79.76
2019-05-13T01:23:46.482Z,80.03
2019-05-13T01:26:18.232Z,80.11
2019-05-13T01:28:50.099Z,80.09
2019-05-13T01:31:23.837Z,80.62
2019-05-13T01:33:55.827Z,80.62
2019-05-13T01:36:27.902Z,80.60
2019-05-13T01:39:00.908Z,80.48
2019-05-13T01:41:33.573Z,80.74
2019-05-13T01:44:05.344Z,80.88
2019-05-13T01:46:36.932Z,80.62
2019-05-13T01:49:09.057Z,80.54
2019-05-13T01:51:40.688Z,80.67
2019-05-13T01:54:14.280Z,80.59
2019-05-13T01:56:46.150Z,80.62
2019-05-13T01:59:18.330Z,80.19
2019-05-13T02:01:53.921Z,80.33
2019-05-13T02:04:25.441Z,80.33
2019-05-13T02:06:57.073Z,80.60
2019-05-13T02:09:29.543Z,80.63
2019-05-13T02:12:01.302Z,80.64
2019-05-13T02:14:34.049Z,80.83
2019-05-13T02:17:05.967Z,80.77
2019-05-13T02:19:37.614Z,80.62
2019-05-13T02:22:09.373Z,80.70
2019-05-13T02:24:41.213Z,80.61
2019-05-13T02:27:14.196Z,80.60
2019-05-13T02:29:45.895Z,80.47
2019-05-13T02:32:17.955Z,80.72
2019-05-13T02:34:53.065Z,80.60
2019-05-13T02:37:23.449Z,81.00
2019-05-13T02:39:55.267Z,80.69
2019-05-13T02:42:27.095Z,80.97
2019-05-13T02:44:59.196Z,80.88
2019-05-13T02:47:33.046Z,80.91
2019-05-13T02:50:07.118Z,80.89
2019-05-13T02:52:38.982Z,81.24
2019-05-13T02:55:12.337Z,80.73
2019-05-13T02:57:44.303Z,81.22
2019-05-13T03:00:16.808Z,81.14
2019-05-13T03:02:48.581Z,80.71
2019-05-13T03:05:21.914Z,80.65
2019-05-13T03:07:53.691Z,80.61
2019-05-13T03:10:25.677Z,80.76
2019-05-13T03:12:57.533Z,80.80
2019-05-13T03:15:32.777Z,80.44
2019-05-13T03:18:05.487Z,80.46
2019-05-13T03:20:37.083Z,80.25
2019-05-13T03:23:08.981Z,80.08
2019-05-13T03:25:42.911Z,79.91
2019-05-13T03:28:14.418Z,79.66
2019-05-13T03:30:46.602Z,79.82
2019-05-13T03:33:21.910Z,80.11
2019-05-13T03:35:55.675Z,80.17
2019-05-13T03:38:26.476Z,80.31
2019-05-13T03:40:59.470Z,80.30
2019-05-13T03:43:33.239Z,80.14
2019-05-13T03:46:04.965Z,80.21
2019-05-13T03:48:38.416Z,80.26
2019-05-13T03:51:13.336Z,80.23
2019-05-13T03:53:44.699Z,80.13
2019-05-13T03:56:17.109Z,80.20
2019-05-13T03:58:49.209Z,80.21
2019-05-13T04:01:22.531Z,80.42
2019-05-13T04:03:54.230Z,80.81
2019-05-13T04:06:26.264Z,81.39
2019-05-13T04:09:20.043Z,80.84
2019-05-13T04:11:33.077Z,80.88
2019-05-13T04:14:04.877Z,81.10
2019-05-13T04:16:36.668Z,80.58
2019-05-13T04:19:12.094Z,81.33
2019-05-13T04:21:43.154Z,80.81
2019-05-13T04:24:14.995Z,81.10
2019-05-13T04:27:03.870Z,81.58
2019-05-13T04:29:37.767Z,81.40
2019-05-13T04:32:12.340Z,81.35
2019-05-13T04:34:42.749Z,81.78
2019-05-13T04:37:14.552Z,81.26
2019-05-13T04:39:51.576Z,81.27
2019-05-13T04:42:23.032Z,81.21
2019-05-13T04:44:55.165Z,81.06
2019-05-13T04:47:26.878Z,81.55
2019-05-13T04:50:02.558Z,81.17
2019-05-13T04:52:33.179Z,79.95
2019-05-13T04:55:06.059Z,79.47
2019-05-13T04:57:38.236Z,78.97
2019-05-13T05:00:12.820Z,78.48
2019-05-13T05:02:51.281Z,77.68
2019-05-13T05:05:26.145Z,78.22
2019-05-13T05:08:18.567Z,78.33
2019-05-13T05:11:14.783Z,77.70
2019-05-13T05:14:08.481Z,77.55
2019-05-13T05:17:02.905Z,76.85
2019-05-13T05:19:55.488Z,76.75
2019-05-13T05:22:36.376Z,76.02
2019-05-13T05:25:22.771Z,75.86
2019-05-13T05:28:16.016Z,75.29
2019-05-13T05:31:11.636Z,75.09
2019-05-13T05:33:48.634Z,76.27
2019-05-13T05:36:56.845Z,76.15
2019-05-13T05:39:31.388Z,75.58
2019-05-13T05:42:02.511Z,74.83
2019-05-13T05:44:34.248Z,73.97
2019-05-13T05:47:06.717Z,73.42
2019-05-13T05:49:41.066Z,73.61
2019-05-13T05:52:13.820Z,74.40
2019-05-13T05:54:48.429Z,74.28
2019-05-13T05:57:22.496Z,73.98
2019-05-13T05:59:56.397Z,73.91
2019-05-13T06:02:32.316Z,74.16
2019-05-13T06:05:05.272Z,74.32
2019-05-13T06:07:38.551Z,73.61
2019-05-13T06:10:12.203Z,72.91
2019-05-13T06:12:44.083Z,72.68
2019-05-13T06:15:15.611Z,74.04
2019-05-13T06:17:47.210Z,72.75
2019-05-13T06:20:20.971Z,72.07
2019-05-13T06:22:52.546Z,72.45
2019-05-13T06:25:24.048Z,72.02
2019-05-13T06:27:56.078Z,72.44
2019-05-13T06:30:27.793Z,72.54
2019-05-13T06:33:01.619Z,73.17
2019-05-13T06:35:33.420Z,73.81
2019-05-13T06:38:05.435Z,71.91
2019-05-13T06:40:37.485Z,71.61
2019-05-13T06:43:11.864Z,72.44
2019-05-13T06:45:42.895Z,72.75
2019-05-13T06:48:14.600Z,72.70
2019-05-13T06:50:46.150Z,72.99
2019-05-13T06:53:18.726Z,72.74
2019-05-13T06:55:52.339Z,73.51
2019-05-13T06:58:24.214Z,73.31
2019-05-13T07:00:58.978Z,72.99
2019-05-13T07:03:32.259Z,73.61
2019-05-13T07:06:04.099Z,73.83
2019-05-13T07:08:36.333Z,73.53
2019-05-13T07:11:20.286Z,73.51
2019-05-13T07:13:42.320Z,72.61
2019-05-13T07:16:13.973Z,72.48
2019-05-13T07:18:45.930Z,73.34
2019-05-13T07:21:17.731Z,73.68
2019-05-13T07:23:54.719Z,73.33
2019-05-13T07:26:24.370Z,72.50
2019-05-13T07:28:56.280Z,72.76
2019-05-13T07:31:28.054Z,72.08
2019-05-13T07:34:02.195Z,72.49
2019-05-13T07:36:34.760Z,71.92
2019-05-13T07:39:08.967Z,71.22
2019-05-13T07:41:43.111Z,70.98
2019-05-13T07:44:13.844Z,72.03
2019-05-13T07:46:45.999Z,71.07
2019-05-13T07:49:18.695Z,70.64
2019-05-13T07:51:52.095Z,70.36
2019-05-13T07:54:23.945Z,71.07
2019-05-13T07:56:55.509Z,72.13
2019-05-13T07:59:27.386Z,71.49
2019-05-13T08:01:59.309Z,71.01
2019-05-13T08:04:33.422Z,71.29
2019-05-13T08:07:05.440Z,71.52
2019-05-13T08:09:37.689Z,69.41
2019-05-13T08:12:13.455Z,68.31
2019-05-13T08:14:43.610Z,69.62
2019-05-13T08:17:17.967Z,68.02
2019-05-13T08:19:52.064Z,68.08
2019-05-13T08:22:23.526Z,68.35
2019-05-13T08:24:55.391Z,68.80
2019-05-13T08:27:34.461Z,68.63
2019-05-13T08:30:01.647Z,69.03
2019-05-13T08:32:34.543Z,66.22
2019-05-13T08:35:09.225Z,66.06
2019-05-13T08:37:41.560Z,65.21
2019-05-13T08:40:14.150Z,66.40
2019-05-13T08:42:45.773Z,64.00
2019-05-13T08:45:17.976Z,62.74
2019-05-13T08:47:51.214Z,61.76
2019-05-13T08:50:24.335Z,61.12
2019-05-13T08:52:56.215Z,62.03
2019-05-13T08:55:28.372Z,61.31
2019-05-13T08:58:01.886Z,59.89
2019-05-13T09:00:53.893Z,60.39
2019-05-13T09:03:25.739Z,61.33
2019-05-13T09:05:57.531Z,59.61
2019-05-13T09:08:31.844Z,57.97
2019-05-13T09:11:03.185Z,57.26
2019-05-13T09:13:35.138Z,57.04
2019-05-13T09:16:07.187Z,57.55
2019-05-13T09:18:38.751Z,58.70
2019-05-13T09:21:11.684Z,59.02
2019-05-13T09:23:43.685Z,59.06
2019-05-13T09:26:15.564Z,59.43
2019-05-13T09:28:47.309Z,57.00
2019-05-13T09:31:21.836Z,57.42
2019-05-13T09:33:52.460Z,58.03
2019-05-13T09:36:24.324Z,58.26
2019-05-13T09:38:56.095Z,58.40
2019-05-13T09:41:28.118Z,57.61
2019-05-13T09:44:01.993Z,57.20
2019-05-13T09:46:34.521Z,56.37
2019-05-13T09:49:15.746Z,57.17
2019-05-13T09:51:41.718Z,57.24
2019-05-13T09:54:14.418Z,56.85
2019-05-13T09:56:45.969Z,57.42
2019-05-13T09:59:17.653Z,57.12
2019-05-13T10:01:51.691Z,57.38
2019-05-13T10:04:22.567Z,57.11
2019-05-13T10:06:54.131Z,56.80
2019-05-13T10:09:26.197Z,56.58
2019-05-13T10:11:57.935Z,57.72
2019-05-13T10:14:32.358Z,57.83
2019-05-13T10:17:05.991Z,56.84
2019-05-13T10:19:36.606Z,56.21
2019-05-13T10:22:08.437Z,56.10
2019-05-13T10:24:42.365Z,55.79
2019-05-13T10:27:18.446Z,56.06
2019-05-13T10:29:47.297Z,56.14
2019-05-13T10:32:21.736Z,55.80
2019-05-13T10:34:53.987Z,55.66
2019-05-13T10:37:25.435Z,55.44
2019-05-13T10:39:57.016Z,55.14
2019-05-13T10:42:28.955Z,55.15
2019-05-13T10:45:02.579Z,55.28
2019-05-13T10:47:34.120Z,53.48
2019-05-13T10:50:07.059Z,53.05
2019-05-13T10:52:38.569Z,54.06
2019-05-13T10:55:12.813Z,53.56
2019-05-13T10:57:43.488Z,52.97
2019-05-13T11:00:15.763Z,53.20
2019-05-13T11:02:47.339Z,53.09
2019-05-13T11:05:18.860Z,54.21
2019-05-13T11:07:51.760Z,53.53
2019-05-13T11:10:26.589Z,50.91
2019-05-13T11:12:58.260Z,50.17
2019-05-13T11:15:32.828Z,50.42
2019-05-13T11:18:03.198Z,51.34
2019-05-13T11:20:35.308Z,52.96
2019-05-13T11:23:06.898Z,54.69
2019-05-13T11:25:41.190Z,52.44
2019-05-13T11:28:12.366Z,51.13
2019-05-13T11:30:44.269Z,51.69
2019-05-13T11:33:16.289Z,50.34
2019-05-13T11:35:47.895Z,49.57
2019-05-13T11:38:21.654Z,49.30
2019-05-13T11:40:52.733Z,49.07
2019-05-13T11:43:28.299Z,49.78
2019-05-13T11:45:58.813Z,49.20
2019-05-13T11:48:32.269Z,48.19
2019-05-13T11:51:04.314Z,49.21
2019-05-13T11:53:37.729Z,48.89
2019-05-13T11:56:11.534Z,48.04
2019-05-13T11:58:43.373Z,47.87
2019-05-13T12:01:14.853Z,46.78
2019-05-13T12:03:47.513Z,48.53
2019-05-13T12:06:22.916Z,48.37
2019-05-13T12:08:55.149Z,48.82
2019-05-13T12:11:25.544Z,49.71
2019-05-13T12:13:58.735Z,49.82
2019-05-13T12:16:34.762Z,49.45
2019-05-13T12:19:03.932Z,50.13
2019-05-13T12:21:42.155Z,50.05
2019-05-13T12:24:10.945Z,49.36
2019-05-13T12:26:43.630Z,49.25
2019-05-13T12:29:18.990Z,49.63
2019-05-13T12:31:48.489Z,50.06
2019-05-13T12:34:22.096Z,50.38
2019-05-13T12:36:53.499Z,50.91
2019-05-13T12:39:25.033Z,51.09
2019-05-13T12:41:56.672Z,51.97
2019-05-13T12:44:31.594Z,53.98
2019-05-13T12:47:03.609Z,55.33
2019-05-13T12:49:36.708Z,56.37
2019-05-13T12:52:08.537Z,57.46
2019-05-13T12:54:43.673Z,59.05
2019-05-13T12:57:16.120Z,60.12
2019-05-13T12:59:47.067Z,60.91
2019-05-13T13:02:18.922Z,61.76
2019-05-13T13:05:09.202Z,62.81
2019-05-13T13:07:24.104Z,64.90
2019-05-13T13:09:56.164Z,65.94
2019-05-13T13:12:34.650Z,66.86
2019-05-13T13:15:20.308Z,68.09
2019-05-13T13:17:35.006Z,68.12
2019-05-13T13:20:09.646Z,68.25
2019-05-13T13:22:41.282Z,68.77
2019-05-13T13:25:14.186Z,68.77
2019-05-13T13:28:09.079Z,69.26
2019-05-13T13:30:19.215Z,69.15
2019-05-13T13:32:54.944Z,69.28
2019-05-13T13:35:24.225Z,68.61
2019-05-13T13:37:56.021Z,68.55
2019-05-13T13:40:29.685Z,68.67
2019-05-13T13:43:05.222Z,68.93
2019-05-13T13:46:05.770Z,68.91
2019-05-13T13:48:07.967Z,69.06
2019-05-13T13:50:43.934Z,69.20
2019-05-13T13:53:13.899Z,68.71
2019-05-13T13:55:46.041Z,68.63
2019-05-13T13:58:17.777Z,68.49
2019-05-13T14:01:01.878Z,67.53
2019-05-13T14:03:23.968Z,67.73
2019-05-13T14:05:55.817Z,64.93
2019-05-13T14:08:27.589Z,64.29
2019-05-13T14:11:01.947Z,63.88
2019-05-13T14:13:33.141Z,62.93
2019-05-13T14:16:20.600Z,63.26
2019-05-13T14:18:41.703Z,63.74
2019-05-13T14:21:12.186Z,63.88
2019-05-13T14:23:43.962Z,63.49
2019-05-13T14:26:15.962Z,63.55
2019-05-13T14:28:47.789Z,63.46
2019-05-13T14:31:21.395Z,63.71
2019-05-13T14:33:54.139Z,63.69
2019-05-13T14:36:25.737Z,63.63
2019-05-13T14:38:57.397Z,63.04
2019-05-13T14:41:31.134Z,62.62
2019-05-13T14:44:03.746Z,62.47
2019-05-13T14:46:46.795Z,61.85
2019-05-13T14:49:09.034Z,62.18
2019-05-13T14:51:41.509Z,61.50
2019-05-13T14:54:13.122Z,60.80
2019-05-13T14:56:44.906Z,60.64
2019-05-13T14:59:16.631Z,59.53
2019-05-13T15:01:48.521Z,59.41
2019-05-13T15:04:22.259Z,59.64
2019-05-13T15:06:53.460Z,59.73
2019-05-13T15:09:25.093Z,59.36
2019-05-13T15:11:57.123Z,59.32
2019-05-13T15:14:29.014Z,59.27
2019-05-13T15:17:06.250Z,59.45
2019-05-13T15:19:33.883Z,59.51
2019-05-13T15:22:06.030Z,60.05
2019-05-13T15:24:37.877Z,59.95
2019-05-13T15:27:09.460Z,60.15
2019-05-13T15:29:41.752Z,60.14
2019-05-13T15:32:13.620Z,59.86
2019-05-13T15:34:45.553Z,59.74
2019-05-13T15:37:17.706Z,58.73
2019-05-13T15:39:51.702Z,57.83
2019-05-13T15:42:22.879Z,57.82
2019-05-13T15:44:54.364Z,56.98
2019-05-13T15:47:27.014Z,56.68
2019-05-13T15:50:02.191Z,55.96
2019-05-13T15:52:32.465Z,56.31
2019-05-13T15:55:05.256Z,56.23
2019-05-13T15:57:36.779Z,55.75
2019-05-13T16:00:08.607Z,55.04
2019-05-13T16:02:42.192Z,55.24
2019-05-13T16:05:13.835Z,55.22
2019-05-13T16:07:45.389Z,55.37
2019-05-13T16:10:17.379Z,55.57
2019-05-13T16:12:51.327Z,55.25
2019-05-13T16:15:22.769Z,55.68
2019-05-13T16:17:54.629Z,55.62
2019-05-13T16:20:26.283Z,55.69
2019-05-13T16:22:58.042Z,54.98
2019-05-13T16:25:31.809Z,55.14
2019-05-13T16:28:03.439Z,55.09
2019-05-13T16:30:35.167Z,55.20
2019-05-13T16:33:06.933Z,54.82
2019-05-13T16:35:38.671Z,54.25
2019-05-13T16:38:11.259Z,55.12
2019-05-13T16:40:42.969Z,54.99
2019-05-13T16:43:14.884Z,55.27
2019-05-13T16:45:46.472Z,55.35
2019-05-13T16:48:18.082Z,55.18
2019-05-13T16:50:50.059Z,55.50
2019-05-13T16:53:25.655Z,55.92
2019-05-13T16:55:55.411Z,56.13
2019-05-13T16:58:27.258Z,56.10
2019-05-13T17:00:58.737Z,56.53
2019-05-13T17:03:31.914Z,57.21
2019-05-13T17:06:04.183Z,57.93
2019-05-13T17:08:35.826Z,58.04
2019-05-13T17:11:07.434Z,57.77
2019-05-13T17:13:39.355Z,58.31
2019-05-13T17:16:11.106Z,58.72
2019-05-13T17:18:42.986Z,58.61
2019-05-13T17:21:14.731Z,58.90
2019-05-13T17:23:46.673Z,59.35
2019-05-13T17:26:18.350Z,59.15
2019-05-13T17:28:51.900Z,59.22
2019-05-13T17:31:23.549Z,59.33
2019-05-13T17:33:55.136Z,61.62
2019-05-13T17:36:26.894Z,61.87
2019-05-13T17:38:58.560Z,61.94
2019-05-13T17:41:32.147Z,62.03
2019-05-13T17:44:03.515Z,61.54
2019-05-13T17:46:35.374Z,61.98
2019-05-13T17:49:07.040Z,62.96
2019-05-13T17:51:38.776Z,63.67
2019-05-13T17:54:11.977Z,63.81
2019-05-13T17:56:43.894Z,63.17
2019-05-13T17:59:17.377Z,63.44
2019-05-13T18:01:51.702Z,63.42
2019-05-13T18:04:23.416Z,63.19
2019-05-13T18:06:58.517Z,63.78
2019-05-13T18:09:28.361Z,65.38
2019-05-13T18:12:02.164Z,65.22
2019-05-13T18:14:33.441Z,65.24
2019-05-13T18:17:05.280Z,65.40
2019-05-13T18:19:36.804Z,65.38
2019-05-13T18:22:08.579Z,65.11
2019-05-13T18:24:40.490Z,65.88
2019-05-13T18:27:12.512Z,65.50
2019-05-13T18:29:44.309Z,65.25
2019-05-13T18:32:16.099Z,65.09
2019-05-13T18:34:47.939Z,65.08
2019-05-13T18:37:19.314Z,64.84
2019-05-13T18:39:52.014Z,65.49
2019-05-13T18:42:23.746Z,65.44
2019-05-13T18:44:55.578Z,66.03
2019-05-13T18:47:27.460Z,65.77
2019-05-13T18:50:02.001Z,65.65
2019-05-13T18:52:32.838Z,65.86
2019-05-13T18:55:05.729Z,65.88
2019-05-13T18:57:37.205Z,65.63
2019-05-13T19:00:11.639Z,65.73
2019-05-13T19:02:43.266Z,65.71
2019-05-13T19:05:15.167Z,65.83
2019-05-13T19:07:46.537Z,66.44
2019-05-13T19:10:18.461Z,66.83
2019-05-13T19:12:49.978Z,67.47
2019-05-13T19:15:22.123Z,68.62
2019-05-13T19:17:53.622Z,67.99
2019-05-13T19:20:25.452Z,67.80
2019-05-13T19:22:56.891Z,68.06
2019-05-13T19:25:28.386Z,67.70
2019-05-13T19:28:02.245Z,67.78
2019-05-13T19:30:33.695Z,67.94
2019-05-13T19:33:05.470Z,67.66
2019-05-13T19:35:36.932Z,67.64
2019-05-13T19:38:08.754Z,67.86
2019-05-13T19:40:41.897Z,68.36
2019-05-13T19:43:13.803Z,67.87
2019-05-13T19:45:45.587Z,67.93
2019-05-13T19:48:16.989Z,68.08
2019-05-13T19:50:48.915Z,68.48
2019-05-13T19:53:20.534Z,68.57
2019-05-13T19:55:52.292Z,68.92
2019-05-13T19:58:24.042Z,69.10
2019-05-13T20:00:55.826Z,69.32
2019-05-13T20:03:27.662Z,69.63
2019-05-13T20:05:59.420Z,69.63
2019-05-13T20:08:32.111Z,69.72
2019-05-13T20:11:04.118Z,69.78
2019-05-13T20:13:35.962Z,69.84
2019-05-13T20:16:07.889Z,69.88
2019-05-13T20:18:41.445Z,70.15
2019-05-13T20:21:13.578Z,70.31
2019-05-13T20:23:45.212Z,70.23
2019-05-13T20:26:17.266Z,70.39
2019-05-13T20:28:48.718Z,70.36
2019-05-13T20:31:21.693Z,70.57
2019-05-13T20:33:53.273Z,70.63
2019-05-13T20:36:25.139Z,70.65
2019-05-13T20:38:57.109Z,70.77
2019-05-13T20:41:28.753Z,71.05
2019-05-13T20:44:01.448Z,71.32
2019-05-13T20:46:33.193Z,71.38
2019-05-13T20:49:04.934Z,70.98
2019-05-13T20:51:36.688Z,70.92
2019-05-13T20:54:08.164Z,71.07
2019-05-13T20:56:42.010Z,71.21
2019-05-13T20:59:12.884Z,71.26
2019-05-13T21:01:44.762Z,71.47
2019-05-13T21:04:16.635Z,71.59
2019-05-13T21:06:48.377Z,71.64
2019-05-13T21:09:20.222Z,71.80
2019-05-13T21:11:51.949Z,71.91
2019-05-13T21:14:23.662Z,72.08
2019-05-13T21:16:55.181Z,72.20
2019-05-13T21:19:26.838Z,72.38
2019-05-13T21:21:58.771Z,72.52
2019-05-13T21:24:31.949Z,72.86
2019-05-13T21:27:03.565Z,72.90
2019-05-13T21:29:35.300Z,72.95
2019-05-13T21:32:06.877Z,73.19
2019-05-13T21:34:38.662Z,73.33
2019-05-13T21:37:12.111Z,73.80
2019-05-13T21:39:44.057Z,73.95
2019-05-13T21:42:15.727Z,73.91
2019-05-13T21:44:47.541Z,73.93
2019-05-13T21:47:21.857Z,74.13
2019-05-13T21:49:52.739Z,74.24
2019-05-13T21:52:24.466Z,74.07
2019-05-13T21:54:56.356Z,73.96
2019-05-13T21:57:28.432Z,73.99
2019-05-13T22:00:02.095Z,74.13
2019-05-13T22:02:35.146Z,74.12
2019-05-13T22:05:07.579Z,74.20
2019-05-13T22:07:39.284Z,74.15
2019-05-13T22:10:11.713Z,74.39
2019-05-13T22:12:43.408Z,74.60
2019-05-13T22:15:15.499Z,74.65
2019-05-13T22:17:47.429Z,75.01
2019-05-13T22:20:21.178Z,74.94
2019-05-13T22:22:52.983Z,75.05
2019-05-13T22:25:24.818Z,75.29
2019-05-13T22:27:57.020Z,75.31
2019-05-13T22:30:28.968Z,75.60
2019-05-13T22:33:01.810Z,75.53
2019-05-13T22:35:34.548Z,75.46
2019-05-13T22:38:06.288Z,75.55
2019-05-13T22:40:38.149Z,75.63
2019-05-13T22:43:12.161Z,75.66
2019-05-13T22:45:43.485Z,75.62
2019-05-13T22:48:15.497Z,75.93
2019-05-13T22:50:47.529Z,75.93
2019-05-13T22:53:21.094Z,76.07
2019-05-13T22:55:52.801Z,75.96
2019-05-13T22:58:24.873Z,75.95
2019-05-13T23:00:56.622Z,76.01
2019-05-13T23:03:28.576Z,76.14
2019-05-13T23:06:01.604Z,76.20
2019-05-13T23:08:33.853Z,76.26
2019-05-13T23:11:05.791Z,76.35
2019-05-13T23:13:37.327Z,76.34
2019-05-13T23:16:11.407Z,76.33
2019-05-13T23:18:42.965Z,76.34
2019-05-13T23:21:15.011Z,76.53
2019-05-13T23:23:47.177Z,76.79
2019-05-13T23:26:20.940Z,76.74
2019-05-13T23:28:52.372Z,76.52
2019-05-13T23:31:24.132Z,76.67
2019-05-13T23:33:56.119Z,76.80
2019-05-13T23:36:28.098Z,76.69
2019-05-13T23:39:01.037Z,76.62
2019-05-13T23:41:34.025Z,76.69
2019-05-13T23:44:05.705Z,76.77
2019-05-13T23:46:37.456Z,76.85
2019-05-13T23:49:09.326Z,76.87
2019-05-13T23:51:41.526Z,76.98
2019-05-13T23:54:13.282Z,77.09
2019-05-13T23:56:45.286Z,76.93
2019-05-13T23:59:17.464Z,76.89
